Time;durP1;ratioP1;P1;durP2;ratioP2;P2;SDS_P1;SDS_P2;PMS_P1;PMS_P2;Temp;Humidity;BMP_temperature;BMP_pressure;BME280_temperature;BME280_humidity;BME280_pressure;Samples;Min_cycle;Max_cycle;Signal;HPM_P1;HPM_P2
2022/08/28 00:00:23;;;;;;;6.97;2.30;;;;;;;;;;4935912;28;20090;-85
2022/08/28 00:08:37;;;;;;;7.68;2.60;;;;;;;;;;4913633;29;20066;-84
2022/08/28 00:11:26;;;;;;;14.70;2.80;;;;;;;;;;4911552;29;20572;-84
2022/08/28 00:13:54;;;;;;;11.27;2.65;;;;;;;;;;4913470;29;20303;-83
2022/08/28 00:16:22;;;;;;;11.52;2.67;;;;;;;;;;4897462;29;20048;-83
2022/08/28 00:18:52;;;;;;;7.93;2.60;;;;;;;;;;4911348;29;20071;-84
2022/08/28 00:21:21;;;;;;;11.35;2.47;;;;;;;;;;4925223;29;20135;-84
2022/08/28 00:24:06;;;;;;;11.57;2.53;;;;;;;;;;4909944;29;20060;-84
2022/08/28 00:29:59;;;;;;;9.10;2.60;;;;;;;;;;4923310;29;20051;-84
2022/08/28 00:32:27;;;;;;;6.63;2.70;;;;;;;;;;4915096;29;20079;-84
2022/08/28 00:35:06;;;;;;;10.77;2.30;;;;;;;;;;4929580;29;20196;-84
2022/08/28 00:38:32;;;;;;;11.38;2.63;;;;;;;;;;4927515;29;20059;-84
2022/08/28 00:42:04;;;;;;;8.13;2.53;;;;;;;;;;4929334;29;20081;-83
2022/08/28 00:44:33;;;;;;;13.20;2.78;;;;;;;;;;4932304;29;20099;-84
2022/08/28 00:47:07;;;;;;;13.70;2.95;;;;;;;;;;4945654;28;20047;-84
2022/08/28 00:50:02;;;;;;;10.82;2.95;;;;;;;;;;4916615;29;20039;-83
2022/08/28 00:52:31;;;;;;;10.02;3.70;;;;;;;;;;4919792;29;20055;-84
2022/08/28 00:55:04;;;;;;;10.02;3.00;;;;;;;;;;4949367;28;20051;-83
2022/08/28 00:57:59;;;;;;;9.63;2.20;;;;;;;;;;4983325;28;20140;-83
2022/08/28 01:00:35;;;;;;;12.30;3.55;;;;;;;;;;4990599;28;20038;-83
2022/08/28 01:03:04;;;;;;;11.73;2.50;;;;;;;;;;4991167;28;20038;-83
2022/08/28 01:05:34;;;;;;;10.65;2.78;;;;;;;;;;4989380;28;20496;-83
2022/08/28 01:08:04;;;;;;;9.38;2.78;;;;;;;;;;4989620;28;20035;-83
2022/08/28 01:10:59;;;;;;;10.20;2.60;;;;;;;;;;4966307;28;20550;-83
2022/08/28 01:13:33;;;;;;;9.85;2.78;;;;;;;;;;4990424;28;20038;-83
2022/08/28 01:16:02;;;;;;;11.50;2.63;;;;;;;;;;4973570;28;20042;-83
2022/08/28 01:18:32;;;;;;;8.40;2.40;;;;;;;;;;4959214;28;20078;-83
2022/08/28 01:21:08;;;;;;;12.02;3.38;;;;;;;;;;4991335;28;20105;-83
2022/08/28 01:23:52;;;;;;;11.50;3.20;;;;;;;;;;4988647;28;20034;-83
2022/08/28 01:26:21;;;;;;;9.40;2.47;;;;;;;;;;4972734;28;20035;-83
2022/08/28 01:28:50;;;;;;;14.43;2.47;;;;;;;;;;4991442;28;20072;-83
2022/08/28 01:31:25;;;;;;;16.20;2.72;;;;;;;;;;4974148;28;20046;-83
2022/08/28 01:33:53;;;;;;;10.88;2.70;;;;;;;;;;4973649;28;20054;-83
2022/08/28 01:36:21;;;;;;;11.95;3.25;;;;;;;;;;4973234;28;20045;-83
2022/08/28 01:39:14;;;;;;;14.07;3.00;;;;;;;;;;4975387;28;20085;-83
2022/08/28 01:41:45;;;;;;;15.77;2.92;;;;;;;;;;4975111;28;20050;-83
2022/08/28 01:44:14;;;;;;;15.88;3.83;;;;;;;;;;4990438;28;20500;-83
2022/08/28 01:46:45;;;;;;;16.23;3.65;;;;;;;;;;4990094;28;20039;-83
2022/08/28 01:49:13;;;;;;;10.23;2.38;;;;;;;;;;4991369;28;20069;-83
2022/08/28 01:51:46;;;;;;;8.45;2.70;;;;;;;;;;4972455;28;20042;-83
2022/08/28 01:54:14;;;;;;;10.02;2.42;;;;;;;;;;4957992;28;20504;-83
2022/08/28 01:56:46;;;;;;;11.82;2.83;;;;;;;;;;4967797;28;20050;-84
2022/08/28 01:59:40;;;;;;;12.43;2.88;;;;;;;;;;4977047;28;20043;-83
2022/08/28 02:02:09;;;;;;;13.93;2.53;;;;;;;;;;4968652;28;20141;-84
2022/08/28 02:04:37;;;;;;;14.48;3.03;;;;;;;;;;4979537;28;20056;-83
2022/08/28 02:17:37;;;;;;;12.60;3.13;;;;;;;;;;4943903;28;20091;-87
2022/08/28 02:20:07;;;;;;;9.98;2.88;;;;;;;;;;4947939;28;20465;-83
2022/08/28 02:25:32;;;;;;;10.10;2.63;;;;;;;;;;4962569;28;20050;-83
2022/08/28 02:28:04;;;;;;;8.60;2.65;;;;;;;;;;4964058;28;20046;-84
2022/08/28 02:30:32;;;;;;;9.30;2.90;;;;;;;;;;4994847;28;20074;-83
2022/08/28 02:33:00;;;;;;;14.13;3.38;;;;;;;;;;4977474;28;20043;-83
2022/08/28 02:50:37;;;;;;;18.33;3.35;;;;;;;;;;4953891;28;20074;-87
2022/08/28 02:53:10;;;;;;;8.65;2.83;;;;;;;;;;4938252;29;20107;-84
2022/08/28 02:55:39;;;;;;;12.77;2.75;;;;;;;;;;4969749;28;20405;-83
2022/08/28 03:08:31;;;;;;;13.65;2.50;;;;;;;;;;4953791;28;20513;-87
2022/08/28 03:13:17;;;;;;;11.32;2.38;;;;;;;;;;4917063;29;20102;-87
2022/08/28 03:18:18;;;;;;;11.80;3.00;;;;;;;;;;4868037;29;20046;-87
2022/08/28 03:53:12;;;;;;;16.25;3.10;;;;;;;;;;4778578;29;20466;-84
2022/08/28 03:55:45;;;;;;;11.77;2.78;;;;;;;;;;4765465;30;20047;-84
2022/08/28 04:01:33;;;;;;;7.70;2.70;;;;;;;;;;4777158;30;20115;-83
2022/08/28 04:14:23;;;;;;;8.82;2.70;;;;;;;;;;4876436;29;20037;-87
2022/08/28 04:18:59;;;;;;;11.43;2.85;;;;;;;;;;4871051;29;20064;-86
2022/08/28 04:23:14;;;;;;;11.73;2.40;;;;;;;;;;4931675;29;20070;-86
2022/08/28 04:27:28;;;;;;;11.40;2.97;;;;;;;;;;4833483;29;20046;-85
2022/08/28 04:30:14;;;;;;;9.55;2.25;;;;;;;;;;4837696;29;20053;-85
2022/08/28 04:33:40;;;;;;;10.00;2.80;;;;;;;;;;4793748;29;20131;-84
2022/08/28 04:37:45;;;;;;;8.50;2.17;;;;;;;;;;4761511;30;20109;-84
2022/08/28 04:40:49;;;;;;;6.55;2.70;;;;;;;;;;4761474;30;20068;-84
2022/08/28 04:44:33;;;;;;;11.82;2.17;;;;;;;;;;4765167;30;20574;-84
2022/08/28 04:47:06;;;;;;;7.80;2.40;;;;;;;;;;4764075;30;20051;-84
2022/08/28 04:50:01;;;;;;;6.55;2.00;;;;;;;;;;4765253;30;20105;-84
2022/08/28 04:52:58;;;;;;;13.15;2.45;;;;;;;;;;4786250;29;20125;-82
2022/08/28 04:55:27;;;;;;;11.25;2.83;;;;;;;;;;4806720;29;20498;-83
2022/08/28 04:58:41;;;;;;;8.98;2.17;;;;;;;;;;4826969;29;20065;-82
2022/08/28 05:01:17;;;;;;;9.35;2.47;;;;;;;;;;4824947;29;20038;-82
2022/08/28 05:03:46;;;;;;;8.85;2.50;;;;;;;;;;4851947;29;20575;-82
2022/08/28 05:06:15;;;;;;;14.52;2.78;;;;;;;;;;4872338;29;20055;-83
2022/08/28 05:08:48;;;;;;;7.05;2.67;;;;;;;;;;4929533;29;20058;-83
2022/08/28 05:11:20;;;;;;;11.07;2.58;;;;;;;;;;4916152;29;20433;-83
2022/08/28 05:14:08;;;;;;;8.75;2.65;;;;;;;;;;4936435;28;20056;-83
2022/08/28 05:16:48;;;;;;;10.68;2.40;;;;;;;;;;4975056;28;20046;-82
2022/08/28 05:19:17;;;;;;;14.32;2.90;;;;;;;;;;4995190;28;20038;-82
2022/08/28 05:21:45;;;;;;;7.97;2.40;;;;;;;;;;4993568;28;20097;-82
2022/08/28 05:25:03;;;;;;;10.35;2.50;;;;;;;;;;4991085;28;20115;-82
2022/08/28 05:27:30;;;;;;;8.60;2.20;;;;;;;;;;4994436;28;20050;-82
2022/08/28 05:29:59;;;;;;;6.45;2.33;;;;;;;;;;4979437;28;20046;-82
2022/08/28 05:32:54;;;;;;;8.15;2.40;;;;;;;;;;4992661;28;20135;-82
2022/08/28 05:35:23;;;;;;;11.40;3.25;;;;;;;;;;4983160;28;20047;-82
2022/08/28 05:37:56;;;;;;;14.82;2.38;;;;;;;;;;5002219;28;20117;-80
2022/08/28 05:40:24;;;;;;;13.63;2.47;;;;;;;;;;4985822;28;20038;-80
2022/08/28 05:42:52;;;;;;;12.07;2.67;;;;;;;;;;5002582;28;20069;-82
2022/08/28 05:45:21;;;;;;;9.93;2.25;;;;;;;;;;4986902;28;20030;-80
2022/08/28 05:47:50;;;;;;;11.75;3.00;;;;;;;;;;4997706;28;20141;-80
2022/08/28 05:50:18;;;;;;;16.02;2.58;;;;;;;;;;5004806;28;20042;-80
2022/08/28 05:52:46;;;;;;;11.23;2.40;;;;;;;;;;5000691;28;20108;-80
2022/08/28 05:55:14;;;;;;;12.88;2.75;;;;;;;;;;4982533;28;20042;-80
2022/08/28 05:57:42;;;;;;;14.07;2.10;;;;;;;;;;4981887;28;20043;-81
2022/08/28 06:00:12;;;;;;;12.40;2.47;;;;;;;;;;4998746;28;20049;-80
2022/08/28 06:02:41;;;;;;;9.50;2.55;;;;;;;;;;4999184;28;20076;-81
2022/08/28 06:05:32;;;;;;;9.93;2.88;;;;;;;;;;4965506;28;20137;-81
2022/08/28 06:08:00;;;;;;;9.07;2.38;;;;;;;;;;4988237;28;20061;-80
2022/08/28 06:13:21;;;;;;;8.45;2.60;;;;;;;;;;5001712;28;20046;-80
2022/08/28 06:15:48;;;;;;;8.95;2.67;;;;;;;;;;4986484;28;20485;-82
2022/08/28 06:18:16;;;;;;;10.68;2.40;;;;;;;;;;4981003;28;20062;-82
2022/08/28 06:21:08;;;;;;;20.30;3.05;;;;;;;;;;4994062;28;20473;-82
2022/08/28 06:24:00;;;;;;;15.15;2.35;;;;;;;;;;4981129;28;20034;-83
2022/08/28 06:26:28;;;;;;;9.85;2.15;;;;;;;;;;4978680;28;20057;-83
2022/08/28 06:29:03;;;;;;;7.45;2.85;;;;;;;;;;4980156;28;20107;-83
2022/08/28 06:31:30;;;;;;;8.57;1.75;;;;;;;;;;5000576;28;20047;-83
2022/08/28 06:34:01;;;;;;;15.02;2.88;;;;;;;;;;4971321;28;20054;-83
2022/08/28 06:36:31;;;;;;;13.13;2.60;;;;;;;;;;4967966;28;20076;-84
2022/08/28 06:39:05;;;;;;;12.75;2.90;;;;;;;;;;4994871;28;20034;-83
2022/08/28 06:41:34;;;;;;;9.90;2.05;;;;;;;;;;5001339;28;20039;-82
2022/08/28 06:44:02;;;;;;;12.25;2.70;;;;;;;;;;4986238;28;20138;-83
2022/08/28 06:46:35;;;;;;;10.15;2.45;;;;;;;;;;4987099;28;20050;-83
2022/08/28 06:49:06;;;;;;;11.70;2.30;;;;;;;;;;4984995;28;20459;-83
2022/08/28 06:51:34;;;;;;;9.38;2.13;;;;;;;;;;4981391;28;20076;-83
2022/08/28 06:54:29;;;;;;;9.38;2.38;;;;;;;;;;4999239;28;20045;-84
2022/08/28 06:56:58;;;;;;;8.30;2.00;;;;;;;;;;4965979;28;20046;-83
2022/08/28 06:59:26;;;;;;;10.75;2.90;;;;;;;;;;5001390;28;20109;-84
2022/08/28 07:01:54;;;;;;;8.00;1.98;;;;;;;;;;4961731;28;20048;-84
2022/08/28 07:05:02;;;;;;;6.03;2.28;;;;;;;;;;4973571;28;20078;-83
2022/08/28 07:07:44;;;;;;;8.70;2.10;;;;;;;;;;4978672;28;20050;-84
2022/08/28 07:10:59;;;;;;;11.27;2.25;;;;;;;;;;4913930;29;20055;-85
2022/08/28 07:13:26;;;;;;;10.93;2.53;;;;;;;;;;4913949;29;20488;-82
2022/08/28 07:16:04;;;;;;;8.40;1.73;;;;;;;;;;4912999;29;20457;-83
2022/08/28 07:18:33;;;;;;;12.68;2.15;;;;;;;;;;4940338;29;20063;-84
2022/08/28 07:21:01;;;;;;;5.28;1.85;;;;;;;;;;4928254;29;20084;-83
2022/08/28 07:23:30;;;;;;;13.68;3.10;;;;;;;;;;4927568;29;20044;-83
2022/08/28 07:26:01;;;;;;;6.75;1.70;;;;;;;;;;4928912;29;20072;-82
2022/08/28 07:28:28;;;;;;;9.55;2.40;;;;;;;;;;4911376;29;20038;-83
2022/08/28 07:31:12;;;;;;;10.52;2.60;;;;;;;;;;4915528;29;20056;-83
2022/08/28 07:33:41;;;;;;;7.72;1.95;;;;;;;;;;4931655;29;20040;-82
2022/08/28 07:36:12;;;;;;;11.10;1.88;;;;;;;;;;4944896;29;20063;-83
2022/08/28 07:38:58;;;;;;;13.80;3.13;;;;;;;;;;4932907;29;20103;-83
2022/08/28 07:41:32;;;;;;;8.80;2.08;;;;;;;;;;4957253;28;20050;-83
2022/08/28 07:46:56;;;;;;;14.63;1.83;;;;;;;;;;5007958;28;20124;-83
2022/08/28 07:52:22;;;;;;;12.45;2.58;;;;;;;;;;5000773;28;20049;-83
2022/08/28 07:54:55;;;;;;;8.30;2.00;;;;;;;;;;5000965;28;20102;-83
2022/08/28 07:57:30;;;;;;;13.23;2.00;;;;;;;;;;4996673;28;20046;-82
2022/08/28 08:00:22;;;;;;;9.07;1.70;;;;;;;;;;4987867;28;20030;-84
2022/08/28 08:02:54;;;;;;;9.10;2.15;;;;;;;;;;4994503;28;20439;-85
2022/08/28 08:05:58;;;;;;;9.63;2.15;;;;;;;;;;4978490;28;20046;-85
2022/08/28 08:08:47;;;;;;;11.70;2.42;;;;;;;;;;4949738;28;20069;-85
2022/08/28 08:11:29;;;;;;;9.40;2.80;;;;;;;;;;4959405;28;20050;-85
2022/08/28 08:15:44;;;;;;;8.23;2.17;;;;;;;;;;4928396;29;20066;-86
2022/08/28 08:19:23;;;;;;;;;;;;;;;;;;4855819;29;20065;-85
2022/08/28 08:22:10;;;;;;;10.30;2.20;;;;;;;;;;4848165;29;20463;-86
2022/08/28 08:24:54;;;;;;;10.43;2.75;;;;;;;;;;4841123;29;20476;-84
2022/08/28 08:27:35;;;;;;;10.02;2.63;;;;;;;;;;4858125;29;20053;-86
2022/08/28 08:30:16;;;;;;;9.10;2.88;;;;;;;;;;4837372;29;20200;-86
2022/08/28 08:33:19;;;;;;;9.88;1.83;;;;;;;;;;4852549;29;20420;-86
2022/08/28 08:36:21;;;;;;;8.48;2.33;;;;;;;;;;4846514;29;20053;-87
2022/08/28 08:40:17;;;;;;;8.50;2.00;;;;;;;;;;4849382;29;20543;-87
2022/08/28 08:49:36;;;;;;;9.98;2.13;;;;;;;;;;4778084;29;20063;-86
2022/08/28 09:03:27;;;;;;;8.70;2.17;;;;;;;;;;4772516;29;20070;-84
2022/08/28 09:07:50;;;;;;;7.32;1.80;;;;;;;;;;4774565;29;20062;-85
2022/08/28 10:39:29;;;;;;;9.02;2.10;;;;;;;;;;4836943;29;20038;-85
2022/08/28 10:44:11;;;;;;;8.95;2.40;;;;;;;;;;4832899;29;20512;-85
2022/08/28 10:47:52;;;;;;;7.05;1.95;;;;;;;;;;4820519;29;20038;-84
2022/08/28 10:51:58;;;;;;;6.57;2.00;;;;;;;;;;4831206;29;20061;-85
2022/08/28 10:56:18;;;;;;;9.57;1.95;;;;;;;;;;4801630;29;20069;-85
2022/08/28 11:09:51;;;;;;;8.95;2.20;;;;;;;;;;4806282;29;20137;-88
2022/08/28 11:33:29;;;;;;;13.98;3.45;;;;;;;;;;4665857;30;20062;-87
2022/08/28 11:37:59;;;;;;;8.65;2.40;;;;;;;;;;4703595;30;20087;-87
2022/08/28 11:42:27;;;;;;;8.20;2.35;;;;;;;;;;4691173;30;20144;-87
2022/08/28 11:45:38;;;;;;;8.88;2.15;;;;;;;;;;4722160;30;20122;-86
2022/08/28 11:51:44;;;;;;;7.18;2.33;;;;;;;;;;4700382;30;20061;-86
2022/08/28 11:55:19;;;;;;;9.73;2.13;;;;;;;;;;4762146;30;20569;-88
2022/08/28 11:59:42;;;;;;;10.65;2.25;;;;;;;;;;4748546;30;20059;-88
2022/08/28 12:14:38;;;;;;;9.75;2.47;;;;;;;;;;4966350;28;20050;-84
2022/08/28 12:23:28;;;;;;;10.88;2.50;;;;;;;;;;4965708;28;20043;-87
2022/08/28 12:28:09;;;;;;;10.27;2.30;;;;;;;;;;4902914;29;20052;-86
2022/08/28 12:32:44;;;;;;;8.65;2.15;;;;;;;;;;4923424;29;20419;-86
2022/08/28 12:35:32;;;;;;;10.30;2.08;;;;;;;;;;4893483;29;20213;-86
2022/08/28 12:38:20;;;;;;;11.88;2.88;;;;;;;;;;4898437;29;20051;-86
2022/08/28 12:41:02;;;;;;;11.38;2.60;;;;;;;;;;4925736;29;20203;-87
2022/08/28 12:45:12;;;;;;;12.00;2.40;;;;;;;;;;4922603;29;20055;-85
2022/08/28 12:49:06;;;;;;;10.02;2.65;;;;;;;;;;4901072;29;20055;-86
2022/08/28 12:52:18;;;;;;;8.65;2.70;;;;;;;;;;4906653;29;20511;-85
2022/08/28 12:55:03;;;;;;;8.70;2.60;;;;;;;;;;4869974;29;20049;-86
2022/08/28 12:57:50;;;;;;;11.93;2.58;;;;;;;;;;4857941;29;20064;-85
2022/08/28 13:00:39;;;;;;;9.35;2.47;;;;;;;;;;4902323;29;20071;-86
2022/08/28 13:03:32;;;;;;;7.40;2.97;;;;;;;;;;4898848;29;20124;-86
2022/08/28 13:06:27;;;;;;;6.85;2.55;;;;;;;;;;4889131;29;20047;-85
2022/08/28 13:09:20;;;;;;;8.73;2.63;;;;;;;;;;4898161;29;20052;-86
2022/08/28 13:12:41;;;;;;;10.02;2.50;;;;;;;;;;4889875;29;20062;-86
2022/08/28 13:15:56;;;;;;;12.43;2.65;;;;;;;;;;4875904;29;20088;-85
2022/08/28 13:19:05;;;;;;;5.63;2.35;;;;;;;;;;4933876;28;20047;-85
2022/08/28 13:22:50;;;;;;;13.43;2.55;;;;;;;;;;4953209;28;20134;-86
2022/08/28 13:30:58;;;;;;;8.55;2.35;;;;;;;;;;4831901;29;20050;-84
2022/08/28 13:34:55;;;;;;;10.32;2.42;;;;;;;;;;4793581;29;20111;-86
2022/08/28 13:39:24;;;;;;;9.23;2.60;;;;;;;;;;4800708;29;20537;-86
2022/08/28 13:44:07;;;;;;;9.68;3.10;;;;;;;;;;4795879;29;20061;-88
2022/08/28 13:48:44;;;;;;;7.32;2.75;;;;;;;;;;4796731;29;20104;-88
2022/08/28 13:52:50;;;;;;;8.35;2.40;;;;;;;;;;4793776;29;20050;-87
2022/08/28 14:43:40;;;;;;;9.38;2.15;;;;;;;;;;4965242;28;20225;-88
2022/08/28 14:46:34;;;;;;;6.85;2.40;;;;;;;;;;4853303;29;20182;-86
2022/08/28 14:49:21;;;;;;;7.45;2.20;;;;;;;;;;4866733;29;20053;-86
2022/08/28 14:52:05;;;;;;;7.78;2.00;;;;;;;;;;4854174;29;20149;-86
2022/08/28 14:55:20;;;;;;;12.55;2.50;;;;;;;;;;4818873;29;20077;-87
2022/08/28 14:58:09;;;;;;;9.32;2.30;;;;;;;;;;4802920;29;20066;-87
2022/08/28 15:01:41;;;;;;;7.80;2.40;;;;;;;;;;4842376;29;20180;-87
2022/08/28 15:04:59;;;;;;;10.80;2.10;;;;;;;;;;4839981;29;20521;-87
2022/08/28 15:08:21;;;;;;;4.75;1.80;;;;;;;;;;4829441;29;20192;-88
2022/08/28 15:11:48;;;;;;;10.23;2.30;;;;;;;;;;4836771;29;20239;-87
2022/08/28 15:15:56;;;;;;;7.40;2.15;;;;;;;;;;4839994;29;20302;-88
2022/08/28 17:00:14;;;;;;;7.30;2.15;;;;;;;;;;4932680;29;20107;-87
2022/08/28 17:10:07;;;;;;;11.88;2.20;;;;;;;;;;4815484;29;20035;-85
2022/08/28 19:12:57;;;;;;;9.57;2.13;;;;;;;;;;4994553;28;20058;-83
2022/08/28 19:16:54;;;;;;;7.95;2.42;;;;;;;;;;4985817;28;20042;-84
2022/08/28 19:20:32;;;;;;;9.30;2.00;;;;;;;;;;4989923;28;20058;-82
2022/08/28 19:23:56;;;;;;;7.90;2.08;;;;;;;;;;4962113;28;20052;-84
2022/08/28 19:28:31;;;;;;;10.45;2.25;;;;;;;;;;4922043;29;20777;-85
2022/08/28 20:00:03;;;;;;;7.70;2.30;;;;;;;;;;4788037;29;20079;-84
2022/08/28 20:05:53;;;;;;;6.95;1.98;;;;;;;;;;4839479;29;20061;-85
2022/08/28 20:08:35;;;;;;;10.05;2.42;;;;;;;;;;4809205;29;20065;-85
2022/08/28 20:17:25;;;;;;;12.00;2.85;;;;;;;;;;4862410;29;20040;-84
2022/08/28 20:21:50;;;;;;;6.68;2.10;;;;;;;;;;4891815;29;20168;-84
2022/08/28 20:25:47;;;;;;;10.23;2.42;;;;;;;;;;4867437;29;20468;-84
2022/08/28 20:30:20;;;;;;;7.80;1.85;;;;;;;;;;4884433;29;20124;-84
2022/08/28 21:02:00;;;;;;;12.15;3.30;;;;;;;;;;4858026;29;20056;-86
2022/08/28 21:05:32;;;;;;;14.43;3.60;;;;;;;;;;4910150;29;20044;-86
2022/08/28 21:14:24;;;;;;;6.80;2.20;;;;;;;;;;4853495;29;20519;-87
2022/08/28 21:18:50;;;;;;;9.32;2.40;;;;;;;;;;4830901;29;20053;-87
2022/08/28 21:23:16;;;;;;;10.80;2.22;;;;;;;;;;4858992;29;20144;-87
2022/08/28 21:27:24;;;;;;;8.43;2.33;;;;;;;;;;4865666;29;20149;-86
2022/08/28 21:31:06;;;;;;;12.88;2.80;;;;;;;;;;4853399;29;20576;-86
2022/08/28 21:39:45;;;;;;;10.35;3.22;;;;;;;;;;4829728;29;20062;-86
2022/08/28 21:44:16;;;;;;;9.50;2.65;;;;;;;;;;4832799;29;20046;-85
2022/08/28 21:47:25;;;;;;;10.55;2.42;;;;;;;;;;4870463;29;20061;-86
2022/08/28 21:51:30;;;;;;;8.95;2.50;;;;;;;;;;4814699;29;20134;-85
2022/08/28 22:05:21;;;;;;;8.80;2.80;;;;;;;;;;4777045;29;20414;-86
2022/08/28 22:09:52;;;;;;;7.13;2.13;;;;;;;;;;4770078;30;20060;-87
2022/08/28 22:23:08;;;;;;;10.43;2.47;;;;;;;;;;4743730;30;20123;-86
2022/08/28 22:31:21;;;;;;;12.75;2.85;;;;;;;;;;4750631;30;20054;-85
2022/08/28 22:35:03;;;;;;;10.45;2.42;;;;;;;;;;4755225;30;20052;-86
2022/08/28 22:43:54;;;;;;;7.80;2.50;;;;;;;;;;4724916;30;20074;-86
2022/08/28 23:11:18;;;;;;;10.73;3.13;;;;;;;;;;4897802;29;20060;-86
2022/08/28 23:15:22;;;;;;;15.45;4.20;;;;;;;;;;4901770;29;20545;-86
2022/08/28 23:19:54;;;;;;;13.48;3.83;;;;;;;;;;4924575;29;20052;-86
2022/08/28 23:42:29;;;;;;;24.67;4.43;;;;;;;;;;4976392;28;20050;-86
